Budapest Bridge — VRIZ5 — position and weather

sailwx.info

Track history (hours):
 
Tides and Currents Weather Stations Pressure Air Temp Water Temp Dewpoint Dewpoint Depression Visibility Wind Speed Wind Dir Waves Ship Positions

Budapest Bridge

Last reported at 2017-Sep-26 02:00 UTC. Time now 2017-Sep-26 12:56 UTC.
Position N 38°42' W 056°48'.

Length 268 m; draft 9.3 m.

Type: Ship (hazmat cat A). MMSI: 477434200.

Wind from 280 at 10 knots

Barometer 1021.0 mb
Air temperature 24.0 ° C
Visibility: greater than 5.4 NM
Dewpoint 22.5 ° C
Water temperature 30.0 ° C

Date/timePositionNaut miles runAvg speedWind from/ knotsBaromVisibWave heightAir tempDewpointWater temp
2017-Sep-26 02:00N 38°42' W 056°48'   280 / 101021.0 5.4 24.022.530.0
2017-Sep-22 02:00N 32°07' W 081°08'0 0.0
2017-Sep-22 01:30N 32°07' W 081°08'0 0.0
2017-Sep-22 00:54N 32°07' W 081°08'0 0.0
2017-Sep-22 00:24N 32°07' W 081°08'0 0.0
2017-Sep-22 00:00N 32°07' W 081°08'0 0.0
2017-Sep-21 23:30N 32°07' W 081°08'1 1.2
2017-Sep-21 23:00N 32°08' W 081°08'2 3.1
2017-Sep-21 22:30N 32°07' W 081°07'3 5.2
2017-Sep-21 22:00N 32°05' W 081°05'3 6.5
2017-Sep-21 21:30N 32°05' W 081°01'611.4
2017-Sep-21 21:00N 32°02' W 080°56'611.8
2017-Sep-21 20:31N 32°02' W 080°49'815.2
2017-Sep-21 20:00N 31°57' W 080°41'5 9.0
2017-Sep-21 19:30N 31°58' W 080°36'5 9.1
2017-Sep-21 19:00N 31°58' W 080°31'4 8.6
2017-Sep-21 18:30N 31°59' W 080°26'6 8.8
2017-Sep-21 17:52N 31°60' W 080°19'411.8
2017-Sep-21 17:30N 31°60' W 080°14'611.8
2017-Sep-21 17:00N 31°60' W 080°07'612.4
2017-Sep-21 16:30N 31°60' W 079°60'1414.6
2017-Sep-21 15:34N 32°01' W 079°44'115.2
2017-Sep-21 15:29N 32°02' W 079°43'715.2
2017-Sep-21 15:00N 32°06' W 079°35'4 7.7
2017-Sep-21 14:30N 32°08' W 079°32'612.6
2017-Sep-21 14:00N 32°12' W 079°25'712.6
2017-Sep-21 13:25N 32°16' W 079°18'512.7
2017-Sep-21 13:00N 32°19' W 079°13'32011.5
2017-Sep-20 09:18N 36°53' W 075°54'617.2
2017-Sep-20 08:57N 36°57' W 076°00'716.1
2017-Sep-20 08:30N 36°59' W 076°09'917.2
2017-Sep-20 07:58N 36°58' W 076°20'3 5.9
2017-Sep-20 07:30N 36°56' W 076°20'0 0.0
2017-Sep-20 07:00N 36°56' W 076°20'0 0.0
2017-Sep-20 06:30N 36°56' W 076°20'0 0.0
2017-Sep-20 06:00N 36°56' W 076°20'0 0.0
2017-Sep-20 05:30N 36°56' W 076°20'0 0.0
2017-Sep-20 04:57N 36°56' W 076°20'0 0.0
2017-Sep-20 04:30N 36°56' W 076°20'0 0.0
2017-Sep-20 03:57N 36°56' W 076°20'0 0.0
2017-Sep-20 03:30N 36°56' W 076°20'0 0.0
2017-Sep-20 03:00N 36°56' W 076°20'0 0.0
2017-Sep-20 02:30N 36°56' W 076°20'0 0.0
2017-Sep-20 01:57N 36°56' W 076°20'0 0.0
2017-Sep-20 01:27N 36°56' W 076°20'0 0.0
2017-Sep-19 20:42N 36°56' W 076°20'0 0.0
2017-Sep-19 20:18N 36°56' W 076°20'0 0.0
2017-Sep-19 19:51N 36°56' W 076°20'0 0.0
2017-Sep-19 19:21N 36°56' W 076°20'0 0.0
2017-Sep-19 18:57N 36°56' W 076°20'0 0.0
2017-Sep-19 18:30N 36°56' W 076°20'0 0.0
2017-Sep-19 17:57N 36°56' W 076°20'0 0.0
2017-Sep-19 17:27N 36°56' W 076°20'0 0.0
2017-Sep-19 16:57N 36°56' W 076°20'0 0.0
2017-Sep-19 16:27N 36°56' W 076°20'0 0.0
2017-Sep-19 16:00N 36°56' W 076°20'0 0.0
2017-Sep-19 15:30N 36°56' W 076°20'0 0.0
2017-Sep-19 15:00N 36°56' W 076°20'1 2.2
2017-Sep-19 14:30N 36°57' W 076°20'5 9.1
2017-Sep-19 14:00N 37°00' W 076°17'816.2
2017-Sep-19 13:30N 36°59' W 076°07'815.2
2017-Sep-19 13:00N 36°56' W 075°58'5 9.4
2017-Sep-19 12:31N 36°54' W 075°53'10411.6
2017-Sep-19 03:30N 38°13' W 074°27'913.1
2017-Sep-19 02:47N 38°20' W 074°21'1412.4
2017-Sep-19 01:40N 38°33' W 074°12'2 8.7
2017-Sep-19 01:29N 38°31' W 074°14'610.2
2017-Sep-19 00:54N 38°26' W 074°17'410.5
2017-Sep-19 00:29N 38°22' W 074°19'510.6
2017-Sep-19 00:01N 38°17' W 074°22'7611.7
2017-Sep-18 17:29N 39°30' W 073°54'912.2
2017-Sep-18 16:44N 39°40' W 073°53'412.2
2017-Sep-18 16:23N 39°44' W 073°53'512.3
2017-Sep-18 16:01N 39°48' W 073°52'612.3
2017-Sep-18 15:30N 39°55' W 073°51'612.3
2017-Sep-18 15:00N 40°01' W 073°51'612.2
2017-Sep-18 14:30N 40°07' W 073°50'810.3
2017-Sep-18 13:41N 40°15' W 073°50'2 9.0
2017-Sep-18 13:24N 40°18' W 073°49'4 9.1
2017-Sep-18 13:00N 40°21' W 073°49'5 9.2
2017-Sep-18 12:30N 40°26' W 073°50'714.2
2017-Sep-18 12:00N 40°30' W 073°57'917.3
2017-Sep-18 11:30N 40°37' W 074°03'3 6.9
2017-Sep-18 11:00N 40°39' W 074°07'1 2.6
2017-Sep-18 10:28N 40°40' W 074°09'0 0.9
2017-Sep-18 09:59N 40°40' W 074°09'0 0.0
2017-Sep-18 09:29N 40°40' W 074°09'0 0.0
2017-Sep-18 08:59N 40°40' W 074°09'0 0.0
2017-Sep-18 08:29N 40°40' W 074°09'0 0.0
2017-Sep-18 07:59N 40°40' W 074°09'0 0.0
2017-Sep-18 07:29N 40°40' W 074°09'0 0.0
2017-Sep-18 06:59N 40°40' W 074°09'0 0.0
2017-Sep-18 06:29N 40°40' W 074°08'0 0.0
2017-Sep-18 05:59N 40°40' W 074°09'0 0.0
2017-Sep-18 05:29N 40°40' W 074°09'0 0.0
2017-Sep-18 04:59N 40°40' W 074°09'0 0.0
2017-Sep-18 04:29N 40°40' W 074°09'0 0.0
2017-Sep-18 03:59N 40°40' W 074°09'0 0.0
2017-Sep-18 03:29N 40°40' W 074°09'0 0.0
2017-Sep-18 02:59N 40°40' W 074°09'0 0.0
2017-Sep-18 02:29N 40°40' W 074°09'0 0.0
2017-Sep-18 01:59N 40°40' W 074°09'0 0.0
2017-Sep-18 01:29N 40°40' W 074°09'0 0.0
2017-Sep-18 00:59N 40°40' W 074°08'0 0.0
2017-Sep-18 00:29N 40°40' W 074°09'0 0.0
2017-Sep-17 23:59N 40°40' W 074°09'0 0.0
2017-Sep-17 23:29N 40°40' W 074°09'0 0.0
2017-Sep-17 22:59N 40°40' W 074°09'0 0.0
2017-Sep-17 22:29N 40°40' W 074°09'0 0.0
2017-Sep-17 21:59N 40°40' W 074°09'0 0.0
2017-Sep-17 21:29N 40°40' W 074°09'0 0.0
2017-Sep-17 20:59N 40°40' W 074°09'0 0.0
2017-Sep-17 20:29N 40°40' W 074°09'0 0.0
2017-Sep-17 19:59N 40°40' W 074°09'0 0.0
2017-Sep-17 19:29N 40°40' W 074°09'0 0.0
2017-Sep-17 18:59N 40°40' W 074°09'0 0.0
2017-Sep-17 18:29N 40°40' W 074°09'0 0.0
2017-Sep-17 17:59N 40°40' W 074°09'0 0.0
2017-Sep-17 17:29N 40°40' W 074°09'0 0.0
2017-Sep-17 16:59N 40°40' W 074°09'0 0.0
2017-Sep-17 16:29N 40°40' W 074°09'0 0.0
2017-Sep-17 15:59N 40°40' W 074°08'0 0.0
2017-Sep-17 15:29N 40°40' W 074°08'0 0.0
2017-Sep-17 14:59N 40°40' W 074°09'0 0.0
2017-Sep-17 14:29N 40°40' W 074°09'0 0.0
2017-Sep-17 13:59N 40°40' W 074°09'0 0.0
2017-Sep-17 13:29N 40°40' W 074°09'0 0.0
2017-Sep-17 12:59N 40°40' W 074°09'0 0.0
2017-Sep-17 12:29N 40°40' W 074°09'0 0.0
2017-Sep-17 11:59N 40°40' W 074°09'0 0.0
2017-Sep-17 11:26N 40°40' W 074°09'0 0.0
2017-Sep-17 10:59N 40°40' W 074°09'0 0.0
2017-Sep-17 10:29N 40°40' W 074°09'0 0.0
2017-Sep-17 09:59N 40°40' W 074°09'1 1.2
2017-Sep-17 09:30N 40°40' W 074°09'2 4.9
2017-Sep-17 09:00N 40°39' W 074°06'4 7.3
2017-Sep-17 08:31N 40°36' W 074°03'5 9.6
2017-Sep-17 08:00N 40°32' W 074°00'511.0
2017-Sep-17 07:30N 40°29' W 073°54'5 9.8
2017-Sep-17 07:00N 40°27' W 073°48'4 8.8
2017-Sep-17 06:30N 40°27' W 073°42'5 9.2
2017-Sep-17 06:00N 40°28' W 073°36'5 9.5
2017-Sep-17 05:30N 40°28' W 073°30'5 9.3
2017-Sep-17 05:00N 40°28' W 073°24'611.6
2017-Sep-17 04:30N 40°29' W 073°16'611.8
2017-Sep-17 04:00N 40°29' W 073°09'611.7
2017-Sep-17 03:30N 40°30' W 073°01'611.7
2017-Sep-17 02:59N 40°30' W 072°53'612.1
2017-Sep-17 02:29N 40°30' W 072°45'3412.0
2017-Sep-16 23:41N 40°31' W 072°01'211.8
2017-Sep-16 23:30N 40°31' W 071°58'611.8
2017-Sep-16 23:00N 40°31' W 071°50'1212.0
2017-Sep-16 22:03N 40°32' W 071°35'112.2
2017-Sep-16 21:57N 40°32' W 071°34'612.3
2017-Sep-16 21:30N 40°32' W 071°27'612.4
2017-Sep-16 21:00N 40°33' W 071°18'612.2
2017-Sep-16 20:30N 40°33' W 071°10'611.6
2017-Sep-16 20:00N 40°32' W 071°03'3 4.4
2017-Sep-16 19:26N 40°32' W 070°60'716.4
2017-Sep-16 19:00N 40°33' W 070°50'1716.8
2017-Sep-16 17:58N 40°33' W 070°27'  
Track history (hours):
 
Tides and Currents Weather Stations Pressure Air Temp Water Temp Dewpoint Dewpoint Depression Visibility Wind Speed Wind Dir Waves Ship Positions

Budapest Bridge

Last reported at 2017-Sep-26 02:00 UTC. Time now 2017-Sep-26 12:56 UTC.
Position N 38°42' W 056°48'.

Length 268 m; draft 9.3 m.

Type: Ship (hazmat cat A). MMSI: 477434200.

Wind from 280 at 10 knots

Barometer 1021.0 mb
Air temperature 24.0 ° C
Visibility: greater than 5.4 NM
Dewpoint 22.5 ° C
Water temperature 30.0 ° C

Date/timePositionNaut miles runAvg speedWind from/ knotsBaromVisibWave heightAir tempDewpointWater temp
2017-Sep-26 02:00N 38°42' W 056°48'   280 / 101021.0 5.4 24.022.530.0
2017-Sep-22 02:00N 32°07' W 081°08'0 0.0
2017-Sep-22 01:30N 32°07' W 081°08'0 0.0
2017-Sep-22 00:54N 32°07' W 081°08'0 0.0
2017-Sep-22 00:24N 32°07' W 081°08'0 0.0
2017-Sep-22 00:00N 32°07' W 081°08'0 0.0
2017-Sep-21 23:30N 32°07' W 081°08'1 1.2
2017-Sep-21 23:00N 32°08' W 081°08'2 3.1
2017-Sep-21 22:30N 32°07' W 081°07'3 5.2
2017-Sep-21 22:00N 32°05' W 081°05'3 6.5
2017-Sep-21 21:30N 32°05' W 081°01'611.4
2017-Sep-21 21:00N 32°02' W 080°56'611.8
2017-Sep-21 20:31N 32°02' W 080°49'815.2
2017-Sep-21 20:00N 31°57' W 080°41'5 9.0
2017-Sep-21 19:30N 31°58' W 080°36'5 9.1
2017-Sep-21 19:00N 31°58' W 080°31'4 8.6
2017-Sep-21 18:30N 31°59' W 080°26'6 8.8
2017-Sep-21 17:52N 31°60' W 080°19'411.8
2017-Sep-21 17:30N 31°60' W 080°14'611.8
2017-Sep-21 17:00N 31°60' W 080°07'612.4
2017-Sep-21 16:30N 31°60' W 079°60'1414.6
2017-Sep-21 15:34N 32°01' W 079°44'115.2
2017-Sep-21 15:29N 32°02' W 079°43'715.2
2017-Sep-21 15:00N 32°06' W 079°35'4 7.7
2017-Sep-21 14:30N 32°08' W 079°32'612.6
2017-Sep-21 14:00N 32°12' W 079°25'712.6
2017-Sep-21 13:25N 32°16' W 079°18'512.7
2017-Sep-21 13:00N 32°19' W 079°13'32011.5
2017-Sep-20 09:18N 36°53' W 075°54'617.2
2017-Sep-20 08:57N 36°57' W 076°00'716.1
2017-Sep-20 08:30N 36°59' W 076°09'917.2
2017-Sep-20 07:58N 36°58' W 076°20'3 5.9
2017-Sep-20 07:30N 36°56' W 076°20'0 0.0
2017-Sep-20 07:00N 36°56' W 076°20'0 0.0
2017-Sep-20 06:30N 36°56' W 076°20'0 0.0
2017-Sep-20 06:00N 36°56' W 076°20'0 0.0
2017-Sep-20 05:30N 36°56' W 076°20'0 0.0
2017-Sep-20 04:57N 36°56' W 076°20'0 0.0
2017-Sep-20 04:30N 36°56' W 076°20'0 0.0
2017-Sep-20 03:57N 36°56' W 076°20'0 0.0
2017-Sep-20 03:30N 36°56' W 076°20'0 0.0
2017-Sep-20 03:00N 36°56' W 076°20'0 0.0
2017-Sep-20 02:30N 36°56' W 076°20'0 0.0
2017-Sep-20 01:57N 36°56' W 076°20'0 0.0
2017-Sep-20 01:27N 36°56' W 076°20'0 0.0
2017-Sep-19 20:42N 36°56' W 076°20'0 0.0
2017-Sep-19 20:18N 36°56' W 076°20'0 0.0
2017-Sep-19 19:51N 36°56' W 076°20'0 0.0
2017-Sep-19 19:21N 36°56' W 076°20'0 0.0
2017-Sep-19 18:57N 36°56' W 076°20'0 0.0
2017-Sep-19 18:30N 36°56' W 076°20'0 0.0
2017-Sep-19 17:57N 36°56' W 076°20'0 0.0
2017-Sep-19 17:27N 36°56' W 076°20'0 0.0
2017-Sep-19 16:57N 36°56' W 076°20'0 0.0
2017-Sep-19 16:27N 36°56' W 076°20'0 0.0
2017-Sep-19 16:00N 36°56' W 076°20'0 0.0
2017-Sep-19 15:30N 36°56' W 076°20'0 0.0
2017-Sep-19 15:00N 36°56' W 076°20'1 2.2
2017-Sep-19 14:30N 36°57' W 076°20'5 9.1
2017-Sep-19 14:00N 37°00' W 076°17'816.2
2017-Sep-19 13:30N 36°59' W 076°07'815.2
2017-Sep-19 13:00N 36°56' W 075°58'5 9.4
2017-Sep-19 12:31N 36°54' W 075°53'10411.6
2017-Sep-19 03:30N 38°13' W 074°27'913.1
2017-Sep-19 02:47N 38°20' W 074°21'1412.4
2017-Sep-19 01:40N 38°33' W 074°12'2 8.7
2017-Sep-19 01:29N 38°31' W 074°14'610.2
2017-Sep-19 00:54N 38°26' W 074°17'410.5
2017-Sep-19 00:29N 38°22' W 074°19'510.6
2017-Sep-19 00:01N 38°17' W 074°22'7611.7
2017-Sep-18 17:29N 39°30' W 073°54'912.2
2017-Sep-18 16:44N 39°40' W 073°53'412.2
2017-Sep-18 16:23N 39°44' W 073°53'512.3
2017-Sep-18 16:01N 39°48' W 073°52'612.3
2017-Sep-18 15:30N 39°55' W 073°51'612.3
2017-Sep-18 15:00N 40°01' W 073°51'612.2
2017-Sep-18 14:30N 40°07' W 073°50'810.3
2017-Sep-18 13:41N 40°15' W 073°50'2 9.0
2017-Sep-18 13:24N 40°18' W 073°49'4 9.1
2017-Sep-18 13:00N 40°21' W 073°49'5 9.2
2017-Sep-18 12:30N 40°26' W 073°50'714.2
2017-Sep-18 12:00N 40°30' W 073°57'917.3
2017-Sep-18 11:30N 40°37' W 074°03'3 6.9
2017-Sep-18 11:00N 40°39' W 074°07'1 2.6
2017-Sep-18 10:28N 40°40' W 074°09'0 0.9
2017-Sep-18 09:59N 40°40' W 074°09'0 0.0
2017-Sep-18 09:29N 40°40' W 074°09'0 0.0
2017-Sep-18 08:59N 40°40' W 074°09'0 0.0
2017-Sep-18 08:29N 40°40' W 074°09'0 0.0
2017-Sep-18 07:59N 40°40' W 074°09'0 0.0
2017-Sep-18 07:29N 40°40' W 074°09'0 0.0
2017-Sep-18 06:59N 40°40' W 074°09'0 0.0
2017-Sep-18 06:29N 40°40' W 074°08'0 0.0
2017-Sep-18 05:59N 40°40' W 074°09'0 0.0
2017-Sep-18 05:29N 40°40' W 074°09'0 0.0
2017-Sep-18 04:59N 40°40' W 074°09'0 0.0
2017-Sep-18 04:29N 40°40' W 074°09'0 0.0
2017-Sep-18 03:59N 40°40' W 074°09'0 0.0
2017-Sep-18 03:29N 40°40' W 074°09'0 0.0
2017-Sep-18 02:59N 40°40' W 074°09'0 0.0
2017-Sep-18 02:29N 40°40' W 074°09'0 0.0
2017-Sep-18 01:59N 40°40' W 074°09'0 0.0
2017-Sep-18 01:29N 40°40' W 074°09'0 0.0
2017-Sep-18 00:59N 40°40' W 074°08'0 0.0
2017-Sep-18 00:29N 40°40' W 074°09'0 0.0
2017-Sep-17 23:59N 40°40' W 074°09'0 0.0
2017-Sep-17 23:29N 40°40' W 074°09'0 0.0
2017-Sep-17 22:59N 40°40' W 074°09'0 0.0
2017-Sep-17 22:29N 40°40' W 074°09'0 0.0
2017-Sep-17 21:59N 40°40' W 074°09'0 0.0
2017-Sep-17 21:29N 40°40' W 074°09'0 0.0
2017-Sep-17 20:59N 40°40' W 074°09'0 0.0
2017-Sep-17 20:29N 40°40' W 074°09'0 0.0
2017-Sep-17 19:59N 40°40' W 074°09'0 0.0
2017-Sep-17 19:29N 40°40' W 074°09'0 0.0
2017-Sep-17 18:59N 40°40' W 074°09'0 0.0
2017-Sep-17 18:29N 40°40' W 074°09'0 0.0
2017-Sep-17 17:59N 40°40' W 074°09'0 0.0
2017-Sep-17 17:29N 40°40' W 074°09'0 0.0
2017-Sep-17 16:59N 40°40' W 074°09'0 0.0
2017-Sep-17 16:29N 40°40' W 074°09'0 0.0
2017-Sep-17 15:59N 40°40' W 074°08'0 0.0
2017-Sep-17 15:29N 40°40' W 074°08'0 0.0
2017-Sep-17 14:59N 40°40' W 074°09'0 0.0
2017-Sep-17 14:29N 40°40' W 074°09'0 0.0
2017-Sep-17 13:59N 40°40' W 074°09'0 0.0
2017-Sep-17 13:29N 40°40' W 074°09'0 0.0
2017-Sep-17 12:59N 40°40' W 074°09'0 0.0
2017-Sep-17 12:29N 40°40' W 074°09'0 0.0
2017-Sep-17 11:59N 40°40' W 074°09'0 0.0
2017-Sep-17 11:26N 40°40' W 074°09'0 0.0
2017-Sep-17 10:59N 40°40' W 074°09'0 0.0
2017-Sep-17 10:29N 40°40' W 074°09'0 0.0
2017-Sep-17 09:59N 40°40' W 074°09'1 1.2
2017-Sep-17 09:30N 40°40' W 074°09'2 4.9
2017-Sep-17 09:00N 40°39' W 074°06'4 7.3
2017-Sep-17 08:31N 40°36' W 074°03'5 9.6
2017-Sep-17 08:00N 40°32' W 074°00'511.0
2017-Sep-17 07:30N 40°29' W 073°54'5 9.8
2017-Sep-17 07:00N 40°27' W 073°48'4 8.8
2017-Sep-17 06:30N 40°27' W 073°42'5 9.2
2017-Sep-17 06:00N 40°28' W 073°36'5 9.5
2017-Sep-17 05:30N 40°28' W 073°30'5 9.3
2017-Sep-17 05:00N 40°28' W 073°24'611.6
2017-Sep-17 04:30N 40°29' W 073°16'611.8
2017-Sep-17 04:00N 40°29' W 073°09'611.7
2017-Sep-17 03:30N 40°30' W 073°01'611.7
2017-Sep-17 02:59N 40°30' W 072°53'612.1
2017-Sep-17 02:29N 40°30' W 072°45'3412.0
2017-Sep-16 23:41N 40°31' W 072°01'211.8
2017-Sep-16 23:30N 40°31' W 071°58'611.8
2017-Sep-16 23:00N 40°31' W 071°50'1212.0
2017-Sep-16 22:03N 40°32' W 071°35'112.2
2017-Sep-16 21:57N 40°32' W 071°34'612.3
2017-Sep-16 21:30N 40°32' W 071°27'612.4
2017-Sep-16 21:00N 40°33' W 071°18'612.2
2017-Sep-16 20:30N 40°33' W 071°10'611.6
2017-Sep-16 20:00N 40°32' W 071°03'3 4.4
2017-Sep-16 19:26N 40°32' W 070°60'716.4
2017-Sep-16 19:00N 40°33' W 070°50'1716.8
2017-Sep-16 17:58N 40°33' W 070°27'  

Dump ship's entire track history